sensor_id;sensor_type;location;lat;lon;timestamp;pressure;altitude;pressure_sealevel;temperature;humidity
64362;BME280;50685;53.346;-6.296;2022-07-29T00:02:03;101629.66;;;15.67;74.71
64362;BME280;50685;53.346;-6.296;2022-07-29T00:04:28;101628.78;;;15.66;74.76
64362;BME280;50685;53.346;-6.296;2022-07-29T00:06:54;101612.91;;;15.57;74.60
64362;BME280;50685;53.346;-6.296;2022-07-29T00:09:19;101617.34;;;15.58;74.40
64362;BME280;50685;53.346;-6.296;2022-07-29T00:11:45;101625.25;;;15.64;74.54
64362;BME280;50685;53.346;-6.296;2022-07-29T00:14:10;101623.59;;;15.57;74.11
64362;BME280;50685;53.346;-6.296;2022-07-29T00:16:36;101635.81;;;15.72;73.70
64362;BME280;50685;53.346;-6.296;2022-07-29T00:19:02;101644.63;;;15.77;72.70
64362;BME280;50685;53.346;-6.296;2022-07-29T00:21:27;101636.50;;;15.82;72.17
64362;BME280;50685;53.346;-6.296;2022-07-29T00:23:53;101618.94;;;15.68;71.65
64362;BME280;50685;53.346;-6.296;2022-07-29T00:26:18;101616.28;;;15.67;71.16
64362;BME280;50685;53.346;-6.296;2022-07-29T00:28:44;101630.38;;;15.75;71.22
64362;BME280;50685;53.346;-6.296;2022-07-29T00:31:09;101617.19;;;15.67;70.91
64362;BME280;50685;53.346;-6.296;2022-07-29T00:33:35;101643.63;;;15.83;70.79
64362;BME280;50685;53.346;-6.296;2022-07-29T00:36:00;101625.94;;;15.76;70.35
64362;BME280;50685;53.346;-6.296;2022-07-29T00:38:26;101642.69;;;15.85;70.09
64362;BME280;50685;53.346;-6.296;2022-07-29T00:40:51;101631.16;;;15.80;69.70
64362;BME280;50685;53.346;-6.296;2022-07-29T00:43:17;101649.66;;;15.94;69.19
64362;BME280;50685;53.346;-6.296;2022-07-29T00:45:43;101624.88;;;15.83;69.42
64362;BME280;50685;53.346;-6.296;2022-07-29T00:48:09;101626.66;;;15.84;69.20
64362;BME280;50685;53.346;-6.296;2022-07-29T00:50:35;101626.66;;;15.85;68.86
64362;BME280;50685;53.346;-6.296;2022-07-29T00:53:02;101622.22;;;15.83;68.88
64362;BME280;50685;53.346;-6.296;2022-07-29T00:55:28;101600.16;;;15.71;68.69
64362;BME280;50685;53.346;-6.296;2022-07-29T00:57:55;101620.44;;;15.83;68.34
64362;BME280;50685;53.346;-6.296;2022-07-29T01:00:26;101616.00;;;15.81;67.83
64362;BME280;50685;53.346;-6.296;2022-07-29T01:02:52;101593.84;;;15.76;68.19
64362;BME280;50685;53.346;-6.296;2022-07-29T01:05:20;101593.78;;;15.77;67.84
64362;BME280;50685;53.346;-6.296;2022-07-29T01:07:47;101587.50;;;15.80;67.76
64362;BME280;50685;53.346;-6.296;2022-07-29T01:10:14;101590.13;;;15.81;67.66
64362;BME280;50685;53.346;-6.296;2022-07-29T01:12:43;101578.72;;;15.73;67.69
64362;BME280;50685;53.346;-6.296;2022-07-29T01:15:09;101598.09;;;15.86;67.83
64362;BME280;50685;53.346;-6.296;2022-07-29T01:28:42;101592.78;;;15.84;67.35
64362;BME280;50685;53.346;-6.296;2022-07-29T01:31:11;101609.59;;;15.89;67.56
64362;BME280;50685;53.346;-6.296;2022-07-29T01:33:43;101598.94;;;15.88;67.37
64362;BME280;50685;53.346;-6.296;2022-07-29T01:36:40;101607.03;;;15.85;67.01
64362;BME280;50685;53.346;-6.296;2022-07-29T01:39:16;101595.41;;;15.86;66.40
64362;BME280;50685;53.346;-6.296;2022-07-29T01:41:50;101590.94;;;15.88;66.14
64362;BME280;50685;53.346;-6.296;2022-07-29T01:44:24;101606.69;;;16.00;66.19
64362;BME280;50685;53.346;-6.296;2022-07-29T01:46:58;101589.16;;;15.87;66.13
64362;BME280;50685;53.346;-6.296;2022-07-29T01:49:28;101608.56;;;15.95;65.97
64362;BME280;50685;53.346;-6.296;2022-07-29T01:51:59;101602.31;;;15.96;65.89
64362;BME280;50685;53.346;-6.296;2022-07-29T01:54:52;101603.44;;;15.86;65.75
64362;BME280;50685;53.346;-6.296;2022-07-29T01:57:21;101609.53;;;15.93;66.21
64362;BME280;50685;53.346;-6.296;2022-07-29T01:59:50;101605.88;;;15.97;65.66
64362;BME280;50685;53.346;-6.296;2022-07-29T02:02:18;101606.03;;;15.90;65.65
64362;BME280;50685;53.346;-6.296;2022-07-29T02:04:45;101605.97;;;15.92;65.83
64362;BME280;50685;53.346;-6.296;2022-07-29T02:07:17;101607.88;;;15.87;65.68
64362;BME280;50685;53.346;-6.296;2022-07-29T02:09:43;101604.13;;;15.96;65.79
64362;BME280;50685;53.346;-6.296;2022-07-29T02:12:11;101606.72;;;15.99;66.16
64362;BME280;50685;53.346;-6.296;2022-07-29T02:14:42;101592.50;;;15.95;65.83
64362;BME280;50685;53.346;-6.296;2022-07-29T02:17:10;101612.81;;;16.05;65.74
64362;BME280;50685;53.346;-6.296;2022-07-29T02:19:38;101620.63;;;16.16;66.02
64362;BME280;50685;53.346;-6.296;2022-07-29T02:22:05;101632.13;;;16.20;66.06
64362;BME280;50685;53.346;-6.296;2022-07-29T02:24:33;101591.50;;;16.01;66.01
64362;BME280;50685;53.346;-6.296;2022-07-29T02:27:19;101610.84;;;16.14;66.28
64362;BME280;50685;53.346;-6.296;2022-07-29T02:29:47;101593.19;;;16.05;66.68
64362;BME280;50685;53.346;-6.296;2022-07-29T02:32:16;101575.41;;;16.02;66.36
64362;BME280;50685;53.346;-6.296;2022-07-29T02:34:42;101584.19;;;16.09;66.29
64362;BME280;50685;53.346;-6.296;2022-07-29T02:37:10;101591.31;;;16.09;66.65
64362;BME280;50685;53.346;-6.296;2022-07-29T02:39:39;101613.38;;;16.20;66.35
64362;BME280;50685;53.346;-6.296;2022-07-29T02:42:09;101591.28;;;16.12;66.41
64362;BME280;50685;53.346;-6.296;2022-07-29T02:44:35;101577.13;;;16.06;66.87
64362;BME280;50685;53.346;-6.296;2022-07-29T02:47:23;101584.25;;;16.08;67.07
64362;BME280;50685;53.346;-6.296;2022-07-29T02:50:15;101612.34;;;16.26;67.05
64362;BME280;50685;53.346;-6.296;2022-07-29T02:52:54;101600.91;;;16.19;66.69
64362;BME280;50685;53.346;-6.296;2022-07-29T02:55:33;101596.53;;;16.15;67.16
64362;BME280;50685;53.346;-6.296;2022-07-29T02:58:13;101588.75;;;16.05;67.44
64362;BME280;50685;53.346;-6.296;2022-07-29T03:00:41;101575.31;;;16.07;67.31
64362;BME280;50685;53.346;-6.296;2022-07-29T03:03:13;101580.53;;;16.13;67.35
64362;BME280;50685;53.346;-6.296;2022-07-29T03:05:40;101583.19;;;16.13;67.16
64362;BME280;50685;53.346;-6.296;2022-07-29T03:08:09;101591.97;;;16.20;67.42
64362;BME280;50685;53.346;-6.296;2022-07-29T03:10:37;101603.56;;;16.20;67.59
64362;BME280;50685;53.346;-6.296;2022-07-29T03:13:05;101592.13;;;16.14;67.40
64362;BME280;50685;53.346;-6.296;2022-07-29T03:15:31;101610.53;;;16.28;67.38
64362;BME280;50685;53.346;-6.296;2022-07-29T03:17:58;101594.72;;;16.17;66.92
64362;BME280;50685;53.346;-6.296;2022-07-29T03:20:24;101607.09;;;16.21;67.01
64362;BME280;50685;53.346;-6.296;2022-07-29T03:22:50;101616.88;;;16.22;67.23
64362;BME280;50685;53.346;-6.296;2022-07-29T03:25:17;101607.28;;;16.13;67.24
64362;BME280;50685;53.346;-6.296;2022-07-29T03:27:43;101619.56;;;16.22;67.32
64362;BME280;50685;53.346;-6.296;2022-07-29T03:30:10;101610.91;;;16.11;68.21
64362;BME280;50685;53.346;-6.296;2022-07-29T03:32:37;101599.59;;;15.99;68.26
64362;BME280;50685;53.346;-6.296;2022-07-29T03:35:03;101611.16;;;16.01;68.77
64362;BME280;50685;53.346;-6.296;2022-07-29T03:37:29;101623.56;;;16.02;69.26
64362;BME280;50685;53.346;-6.296;2022-07-29T03:39:57;101632.53;;;16.01;69.47
64362;BME280;50685;53.346;-6.296;2022-07-29T03:42:29;101608.66;;;15.92;69.59
64362;BME280;50685;53.346;-6.296;2022-07-29T03:44:57;101628.09;;;16.00;70.19
64362;BME280;50685;53.346;-6.296;2022-07-29T03:47:26;101631.69;;;15.99;70.27
64362;BME280;50685;53.346;-6.296;2022-07-29T03:49:56;101622.97;;;15.89;70.64
64362;BME280;50685;53.346;-6.296;2022-07-29T03:52:24;101645.13;;;15.96;71.54
64362;BME280;50685;53.346;-6.296;2022-07-29T03:54:49;101610.09;;;15.65;72.35
64362;BME280;50685;53.346;-6.296;2022-07-29T03:57:15;101603.13;;;15.57;72.59
64362;BME280;50685;53.346;-6.296;2022-07-29T03:59:42;101623.66;;;15.55;73.02
64362;BME280;50685;53.346;-6.296;2022-07-29T04:02:10;101599.78;;;15.45;73.22
64362;BME280;50685;53.346;-6.296;2022-07-29T04:04:37;101628.00;;;15.61;73.44
64362;BME280;50685;53.346;-6.296;2022-07-29T04:07:03;101628.97;;;15.57;73.96
64362;BME280;50685;53.346;-6.296;2022-07-29T04:09:29;101623.59;;;15.58;73.41
64362;BME280;50685;53.346;-6.296;2022-07-29T04:11:55;101619.25;;;15.53;73.35
64362;BME280;50685;53.346;-6.296;2022-07-29T04:14:20;101623.56;;;15.60;73.29
64362;BME280;50685;53.346;-6.296;2022-07-29T04:16:46;101625.28;;;15.63;73.32
64362;BME280;50685;53.346;-6.296;2022-07-29T04:19:12;101616.44;;;15.59;73.27
64362;BME280;50685;53.346;-6.296;2022-07-29T04:21:39;101643.75;;;15.75;73.54
64362;BME280;50685;53.346;-6.296;2022-07-29T04:24:05;101617.34;;;15.60;73.59
64362;BME280;50685;53.346;-6.296;2022-07-29T04:26:30;101624.31;;;15.67;73.12
64362;BME280;50685;53.346;-6.296;2022-07-29T04:28:56;101613.81;;;15.57;73.07
64362;BME280;50685;53.346;-6.296;2022-07-29T04:31:21;101629.53;;;15.73;73.12
64362;BME280;50685;53.346;-6.296;2022-07-29T04:33:47;101617.13;;;15.69;73.29
64362;BME280;50685;53.346;-6.296;2022-07-29T04:36:12;101625.97;;;15.72;73.01
64362;BME280;50685;53.346;-6.296;2022-07-29T04:38:38;101630.47;;;15.70;72.86
64362;BME280;50685;53.346;-6.296;2022-07-29T04:41:05;101615.34;;;15.69;73.09
64362;BME280;50685;53.346;-6.296;2022-07-29T04:43:32;101639.19;;;15.80;73.04
64362;BME280;50685;53.346;-6.296;2022-07-29T04:45:58;101613.50;;;15.71;73.02
64362;BME280;50685;53.346;-6.296;2022-07-29T04:48:25;101617.91;;;15.74;72.77
64362;BME280;50685;53.346;-6.296;2022-07-29T04:50:50;101604.63;;;15.69;72.74
64362;BME280;50685;53.346;-6.296;2022-07-29T04:53:15;101601.06;;;15.70;72.79
64362;BME280;50685;53.346;-6.296;2022-07-29T04:55:41;101625.03;;;15.75;73.13
64362;BME280;50685;53.346;-6.296;2022-07-29T04:58:06;101622.31;;;15.77;73.39
64362;BME280;50685;53.346;-6.296;2022-07-29T05:00:33;101619.78;;;15.70;73.33
64362;BME280;50685;53.346;-6.296;2022-07-29T05:02:58;101619.63;;;15.78;73.20
64362;BME280;50685;53.346;-6.296;2022-07-29T05:05:24;101618.50;;;15.90;73.04
64362;BME280;50685;53.346;-6.296;2022-07-29T05:07:49;101619.41;;;15.89;72.74
64362;BME280;50685;53.346;-6.296;2022-07-29T05:10:15;101602.59;;;15.84;72.61
64362;BME280;50685;53.346;-6.296;2022-07-29T05:12:40;101606.88;;;15.91;72.91
64362;BME280;50685;53.346;-6.296;2022-07-29T05:15:06;101592.84;;;15.80;72.91
64362;BME280;50685;53.346;-6.296;2022-07-29T05:17:32;101616.72;;;15.89;72.72
64362;BME280;50685;53.346;-6.296;2022-07-29T05:19:57;101600.88;;;15.80;73.17
64362;BME280;50685;53.346;-6.296;2022-07-29T05:22:23;101632.59;;;15.98;73.35
64362;BME280;50685;53.346;-6.296;2022-07-29T05:24:48;101626.38;;;15.98;73.15
64362;BME280;50685;53.346;-6.296;2022-07-29T05:27:14;101622.00;;;15.94;73.25
64362;BME280;50685;53.346;-6.296;2022-07-29T05:29:39;101601.63;;;15.86;73.44
64362;BME280;50685;53.346;-6.296;2022-07-29T05:32:05;101621.91;;;15.98;73.65
64362;BME280;50685;53.346;-6.296;2022-07-29T05:34:31;101613.28;;;15.85;73.63
64362;BME280;50685;53.346;-6.296;2022-07-29T05:36:57;101618.50;;;15.90;73.81
64362;BME280;50685;53.346;-6.296;2022-07-29T05:39:22;101623.78;;;15.93;73.93
64362;BME280;50685;53.346;-6.296;2022-07-29T05:41:48;101627.28;;;15.97;73.60
64362;BME280;50685;53.346;-6.296;2022-07-29T05:44:14;101614.91;;;15.91;73.83
64362;BME280;50685;53.346;-6.296;2022-07-29T05:46:40;101610.47;;;15.92;73.95
64362;BME280;50685;53.346;-6.296;2022-07-29T05:49:05;101621.16;;;15.90;74.69
64362;BME280;50685;53.346;-6.296;2022-07-29T05:51:34;101617.72;;;15.85;74.36
64362;BME280;50685;53.346;-6.296;2022-07-29T05:53:59;101633.56;;;15.96;74.79
64362;BME280;50685;53.346;-6.296;2022-07-29T05:56:25;101632.66;;;15.95;74.54
64362;BME280;50685;53.346;-6.296;2022-07-29T05:58:51;101636.09;;;16.02;74.36
64362;BME280;50685;53.346;-6.296;2022-07-29T06:01:17;101630.66;;;16.06;74.40
64362;BME280;50685;53.346;-6.296;2022-07-29T06:03:43;101616.41;;;16.04;73.89
64362;BME280;50685;53.346;-6.296;2022-07-29T06:06:09;101620.72;;;16.12;74.05
64362;BME280;50685;53.346;-6.296;2022-07-29T06:08:35;101632.09;;;16.21;74.23
64362;BME280;50685;53.346;-6.296;2022-07-29T06:11:02;101617.03;;;16.17;74.02
64362;BME280;50685;53.346;-6.296;2022-07-29T06:13:28;101627.44;;;16.28;73.86
64362;BME280;50685;53.346;-6.296;2022-07-29T06:15:54;101599.06;;;16.21;73.57
64362;BME280;50685;53.346;-6.296;2022-07-29T06:18:20;101614.06;;;16.28;73.25
64362;BME280;50685;53.346;-6.296;2022-07-29T06:20:51;101628.09;;;16.40;72.97
64362;BME280;50685;53.346;-6.296;2022-07-29T06:23:18;101637.66;;;16.50;72.04
64362;BME280;50685;53.346;-6.296;2022-07-29T06:25:43;101613.81;;;16.39;72.07
64362;BME280;50685;53.346;-6.296;2022-07-29T06:28:09;101618.06;;;16.48;71.91
64362;BME280;50685;53.346;-6.296;2022-07-29T06:30:34;101618.06;;;16.48;71.46
64362;BME280;50685;53.346;-6.296;2022-07-29T06:33:00;101623.16;;;16.59;71.13
64362;BME280;50685;53.346;-6.296;2022-07-29T06:35:27;101620.59;;;16.54;71.34
64362;BME280;50685;53.346;-6.296;2022-07-29T06:37:52;101648.88;;;16.66;71.21
64362;BME280;50685;53.346;-6.296;2022-07-29T06:40:18;101629.44;;;16.58;70.96
64362;BME280;50685;53.346;-6.296;2022-07-29T06:43:02;101622.31;;;16.58;70.65
64362;BME280;50685;53.346;-6.296;2022-07-29T06:45:27;101643.56;;;16.64;70.76
64362;BME280;50685;53.346;-6.296;2022-07-29T06:47:53;101650.59;;;16.68;71.02
64362;BME280;50685;53.346;-6.296;2022-07-29T06:50:18;101631.94;;;16.65;70.67
64362;BME280;50685;53.346;-6.296;2022-07-29T06:52:44;101648.69;;;16.74;70.75
64362;BME280;50685;53.346;-6.296;2022-07-29T06:55:10;101638.06;;;16.70;70.62
64362;BME280;50685;53.346;-6.296;2022-07-29T06:57:35;101652.16;;;16.77;70.57
64362;BME280;50685;53.346;-6.296;2022-07-29T07:00:00;101631.91;;;16.67;70.55
64362;BME280;50685;53.346;-6.296;2022-07-29T07:02:27;101658.34;;;16.81;70.23
64362;BME280;50685;53.346;-6.296;2022-07-29T07:04:53;101639.59;;;16.81;70.24
64362;BME280;50685;53.346;-6.296;2022-07-29T07:07:37;101664.31;;;16.94;69.61
64362;BME280;50685;53.346;-6.296;2022-07-29T07:10:03;101635.06;;;16.83;69.93
64362;BME280;50685;53.346;-6.296;2022-07-29T07:12:28;101645.69;;;16.86;69.71
64362;BME280;50685;53.346;-6.296;2022-07-29T07:14:54;101631.59;;;16.79;69.52
64362;BME280;50685;53.346;-6.296;2022-07-29T07:17:19;101653.50;;;16.97;69.25
64362;BME280;50685;53.346;-6.296;2022-07-29T07:19:45;101638.59;;;16.85;69.55
64362;BME280;50685;53.346;-6.296;2022-07-29T07:22:10;101660.56;;;16.99;69.53
64362;BME280;50685;53.346;-6.296;2022-07-29T07:24:35;101637.59;;;16.89;69.75
64362;BME280;50685;53.346;-6.296;2022-07-29T07:27:01;101641.13;;;16.90;69.25
64362;BME280;50685;53.346;-6.296;2022-07-29T07:29:27;101651.84;;;16.91;69.09
64362;BME280;50685;53.346;-6.296;2022-07-29T07:31:52;101667.59;;;17.05;68.88
64362;BME280;50685;53.346;-6.296;2022-07-29T07:34:18;101669.47;;;17.01;68.59
64362;BME280;50685;53.346;-6.296;2022-07-29T07:36:43;101661.44;;;17.01;68.63
64362;BME280;50685;53.346;-6.296;2022-07-29T07:39:09;101656.13;;;16.98;68.70
64362;BME280;50685;53.346;-6.296;2022-07-29T07:41:34;101655.31;;;16.96;68.63
64362;BME280;50685;53.346;-6.296;2022-07-29T07:44:00;101662.28;;;17.02;68.83
64362;BME280;50685;53.346;-6.296;2022-07-29T07:46:25;101658.59;;;17.08;68.84
64362;BME280;50685;53.346;-6.296;2022-07-29T07:48:51;101661.22;;;17.11;68.50
64362;BME280;50685;53.346;-6.296;2022-07-29T07:51:17;101664.53;;;17.19;68.17
64362;BME280;50685;53.346;-6.296;2022-07-29T07:53:43;101673.16;;;17.32;67.95
64362;BME280;50685;53.346;-6.296;2022-07-29T07:56:09;101668.59;;;17.34;67.44
64362;BME280;50685;53.346;-6.296;2022-07-29T07:58:35;101689.47;;;17.56;66.75
64362;BME280;50685;53.346;-6.296;2022-07-29T08:01:02;101656.78;;;17.43;66.65
64362;BME280;50685;53.346;-6.296;2022-07-29T08:03:27;101682.91;;;17.67;66.49
64362;BME280;50685;53.346;-6.296;2022-07-29T08:05:53;101668.75;;;17.61;66.24
64362;BME280;50685;53.346;-6.296;2022-07-29T08:08:19;101686.22;;;17.76;66.30
64362;BME280;50685;53.346;-6.296;2022-07-29T08:10:45;101659.56;;;17.71;65.86
64362;BME280;50685;53.346;-6.296;2022-07-29T08:13:23;101687.56;;;17.92;65.70
64362;BME280;50685;53.346;-6.296;2022-07-29T08:15:49;101675.97;;;17.90;65.74
64362;BME280;50685;53.346;-6.296;2022-07-29T08:18:23;101655.53;;;17.86;65.73
64362;BME280;50685;53.346;-6.296;2022-07-29T08:20:50;101647.47;;;17.86;65.82
64362;BME280;50685;53.346;-6.296;2022-07-29T08:23:15;101674.66;;;18.05;65.58
64362;BME280;50685;53.346;-6.296;2022-07-29T08:25:41;101650.75;;;17.97;65.39
64362;BME280;50685;53.346;-6.296;2022-07-29T08:28:07;101630.13;;;18.00;65.52
64362;BME280;50685;53.346;-6.296;2022-07-29T08:30:32;101636.91;;;18.11;64.87
64362;BME280;50685;53.346;-6.296;2022-07-29T08:32:59;101639.13;;;18.27;64.67
64362;BME280;50685;53.346;-6.296;2022-07-29T08:35:25;101649.41;;;18.41;64.51
64362;BME280;50685;53.346;-6.296;2022-07-29T08:37:51;101649.97;;;18.52;63.98
64362;BME280;50685;53.346;-6.296;2022-07-29T08:40:17;101653.22;;;18.62;63.95
64362;BME280;50685;53.346;-6.296;2022-07-29T08:42:43;101652.03;;;18.71;63.52
64362;BME280;50685;53.346;-6.296;2022-07-29T08:45:11;101655.09;;;18.87;62.63
64362;BME280;50685;53.346;-6.296;2022-07-29T08:47:41;101630.84;;;18.88;61.73
64362;BME280;50685;53.346;-6.296;2022-07-29T08:50:08;101624.34;;;19.21;60.79
64362;BME280;50685;53.346;-6.296;2022-07-29T08:52:36;101630.88;;;19.64;60.06
64362;BME280;50685;53.346;-6.296;2022-07-29T08:55:05;101619.59;;;19.78;59.39
64362;BME280;50685;53.346;-6.296;2022-07-29T08:57:32;101602.84;;;19.70;58.71
64362;BME280;50685;53.346;-6.296;2022-07-29T09:00:00;101632.53;;;19.92;59.42
64362;BME280;50685;53.346;-6.296;2022-07-29T09:02:29;101637.50;;;20.03;59.67
64362;BME280;50685;53.346;-6.296;2022-07-29T09:04:59;101638.97;;;20.12;58.87
64362;BME280;50685;53.346;-6.296;2022-07-29T09:07:25;101625.25;;;20.18;58.19
64362;BME280;50685;53.346;-6.296;2022-07-29T09:09:51;101603.25;;;20.29;58.06
64362;BME280;50685;53.346;-6.296;2022-07-29T09:12:16;101598.19;;;20.43;57.71
64362;BME280;50685;53.346;-6.296;2022-07-29T09:14:42;101620.13;;;20.78;56.77
64362;BME280;50685;53.346;-6.296;2022-07-29T09:17:08;101630.13;;;20.97;55.85
64362;BME280;50685;53.346;-6.296;2022-07-29T09:19:35;101610.78;;;20.87;55.23
64362;BME280;50685;53.346;-6.296;2022-07-29T09:22:05;101624.53;;;20.81;55.11
64362;BME280;50685;53.346;-6.296;2022-07-29T09:24:40;101633.13;;;20.89;55.43
64362;BME280;50685;53.346;-6.296;2022-07-29T09:27:21;101626.47;;;20.98;53.43
64362;BME280;50685;53.346;-6.296;2022-07-29T09:29:56;101613.25;;;21.33;53.63
64362;BME280;50685;53.346;-6.296;2022-07-29T09:32:58;101614.47;;;22.05;51.91
64362;BME280;50685;53.346;-6.296;2022-07-29T09:35:26;101626.69;;;22.51;51.86
64362;BME280;50685;53.346;-6.296;2022-07-29T09:38:12;101638.03;;;22.76;49.44
64362;BME280;50685;53.346;-6.296;2022-07-29T09:40:37;101616.22;;;22.79;50.83
64362;BME280;50685;53.346;-6.296;2022-07-29T09:43:12;101630.56;;;22.99;49.30
64362;BME280;50685;53.346;-6.296;2022-07-29T09:45:38;101643.81;;;23.23;49.56
64362;BME280;50685;53.346;-6.296;2022-07-29T09:48:16;101623.34;;;23.00;48.90
64362;BME280;50685;53.346;-6.296;2022-07-29T09:50:43;101632.41;;;23.16;49.52
64362;BME280;50685;53.346;-6.296;2022-07-29T09:53:10;101629.59;;;23.00;49.40
64362;BME280;50685;53.346;-6.296;2022-07-29T09:55:49;101610.66;;;22.65;48.77
64362;BME280;50685;53.346;-6.296;2022-07-29T09:58:20;101625.59;;;22.55;49.44
64362;BME280;50685;53.346;-6.296;2022-07-29T10:00:47;101626.69;;;22.31;50.27
64362;BME280;50685;53.346;-6.296;2022-07-29T10:03:14;101624.66;;;22.18;51.00
64362;BME280;50685;53.346;-6.296;2022-07-29T10:05:41;101609.19;;;22.02;50.96
64362;BME280;50685;53.346;-6.296;2022-07-29T10:08:07;101626.44;;;21.80;51.65
64362;BME280;50685;53.346;-6.296;2022-07-29T10:10:37;101616.25;;;21.66;51.83
64362;BME280;50685;53.346;-6.296;2022-07-29T10:13:12;101623.91;;;21.57;52.22
64362;BME280;50685;53.346;-6.296;2022-07-29T10:15:40;101612.13;;;21.39;52.58
64362;BME280;50685;53.346;-6.296;2022-07-29T10:18:10;101601.72;;;21.09;52.67
64362;BME280;50685;53.346;-6.296;2022-07-29T10:20:37;101629.19;;;21.18;52.98
64362;BME280;50685;53.346;-6.296;2022-07-29T10:23:03;101617.44;;;20.99;53.47
64362;BME280;50685;53.346;-6.296;2022-07-29T10:25:29;101619.88;;;20.84;53.99
64362;BME280;50685;53.346;-6.296;2022-07-29T10:27:55;101611.97;;;20.80;54.26
64362;BME280;50685;53.346;-6.296;2022-07-29T10:30:23;101616.84;;;20.92;53.91
64362;BME280;50685;53.346;-6.296;2022-07-29T10:33:18;101635.59;;;21.76;52.78
64362;BME280;50685;53.346;-6.296;2022-07-29T10:36:11;101593.66;;;22.07;51.53
64362;BME280;50685;53.346;-6.296;2022-07-29T10:39:05;101630.66;;;22.43;51.26
64362;BME280;50685;53.346;-6.296;2022-07-29T10:41:47;101610.69;;;22.27;51.05
64362;BME280;50685;53.346;-6.296;2022-07-29T10:44:21;101610.13;;;22.20;51.74
64362;BME280;50685;53.346;-6.296;2022-07-29T10:46:48;101628.31;;;22.17;51.96
64362;BME280;50685;53.346;-6.296;2022-07-29T10:49:26;101608.63;;;21.95;51.25
64362;BME280;50685;53.346;-6.296;2022-07-29T10:52:05;101625.41;;;22.02;52.04
64362;BME280;50685;53.346;-6.296;2022-07-29T11:15:56;101635.03;;;20.87;56.06
64362;BME280;50685;53.346;-6.296;2022-07-29T11:18:22;101611.16;;;20.78;56.01
64362;BME280;50685;53.346;-6.296;2022-07-29T11:20:49;101619.16;;;20.79;56.42
64362;BME280;50685;53.346;-6.296;2022-07-29T11:23:25;101625.88;;;20.91;56.43
64362;BME280;50685;53.346;-6.296;2022-07-29T11:28:42;101606.44;;;20.83;56.44
64362;BME280;50685;53.346;-6.296;2022-07-29T11:31:16;101616.69;;;20.95;55.96
64362;BME280;50685;53.346;-6.296;2022-07-29T11:33:41;101637.34;;;21.17;55.84
64362;BME280;50685;53.346;-6.296;2022-07-29T11:36:08;101632.63;;;21.22;55.51
64362;BME280;50685;53.346;-6.296;2022-07-29T11:38:34;101604.50;;;21.07;55.77
64362;BME280;50685;53.346;-6.296;2022-07-29T11:41:25;101634.09;;;21.29;55.32
64362;BME280;50685;53.346;-6.296;2022-07-29T11:49:08;101587.69;;;21.21;54.97
64362;BME280;50685;53.346;-6.296;2022-07-29T11:51:36;101593.44;;;21.13;54.82
64362;BME280;50685;53.346;-6.296;2022-07-29T11:54:02;101615.75;;;21.17;54.85
64362;BME280;50685;53.346;-6.296;2022-07-29T11:56:31;101595.88;;;20.99;55.42
64362;BME280;50685;53.346;-6.296;2022-07-29T11:59:07;101603.84;;;21.02;55.18
64362;BME280;50685;53.346;-6.296;2022-07-29T12:01:34;101594.72;;;20.84;55.41
64362;BME280;50685;53.346;-6.296;2022-07-29T12:04:08;101616.47;;;20.79;55.49
64362;BME280;50685;53.346;-6.296;2022-07-29T12:06:34;101594.53;;;20.66;55.72
64362;BME280;50685;53.346;-6.296;2022-07-29T12:09:00;101624.44;;;20.82;55.58
64362;BME280;50685;53.346;-6.296;2022-07-29T12:11:26;101601.47;;;20.74;55.53
64362;BME280;50685;53.346;-6.296;2022-07-29T12:13:52;101614.97;;;20.94;55.50
64362;BME280;50685;53.346;-6.296;2022-07-29T12:16:19;101620.69;;;21.07;55.16
64362;BME280;50685;53.346;-6.296;2022-07-29T12:19:01;101616.44;;;21.22;54.99
64362;BME280;50685;53.346;-6.296;2022-07-29T12:21:46;101596.69;;;21.22;54.33
64362;BME280;50685;53.346;-6.296;2022-07-29T12:24:13;101596.88;;;21.38;54.50
64362;BME280;50685;53.346;-6.296;2022-07-29T12:26:58;101574.53;;;21.34;54.10
64362;BME280;50685;53.346;-6.296;2022-07-29T12:29:25;101602.44;;;21.54;54.03
64362;BME280;50685;53.346;-6.296;2022-07-29T12:31:53;101596.88;;;21.58;54.04
64362;BME280;50685;53.346;-6.296;2022-07-29T12:34:21;101596.41;;;21.67;53.78
64362;BME280;50685;53.346;-6.296;2022-07-29T12:36:50;101593.44;;;21.74;53.62
64362;BME280;50685;53.346;-6.296;2022-07-29T12:39:16;101607.91;;;21.92;53.44
64362;BME280;50685;53.346;-6.296;2022-07-29T12:41:42;101590.56;;;21.96;53.38
64362;BME280;50685;53.346;-6.296;2022-07-29T12:44:08;101584.28;;;22.14;52.99
64362;BME280;50685;53.346;-6.296;2022-07-29T12:46:33;101582.25;;;22.20;52.12
64362;BME280;50685;53.346;-6.296;2022-07-29T12:48:59;101592.50;;;22.30;52.54
64362;BME280;50685;53.346;-6.296;2022-07-29T12:51:36;101598.13;;;22.45;51.94
64362;BME280;50685;53.346;-6.296;2022-07-29T12:54:12;101582.72;;;22.47;51.11
64362;BME280;50685;53.346;-6.296;2022-07-29T12:56:40;101583.91;;;22.59;50.41
64362;BME280;50685;53.346;-6.296;2022-07-29T12:59:17;101572.84;;;22.46;50.04
64362;BME280;50685;53.346;-6.296;2022-07-29T13:01:45;101569.66;;;22.38;50.46
64362;BME280;50685;53.346;-6.296;2022-07-29T13:04:38;101570.84;;;22.32;49.98
64362;BME280;50685;53.346;-6.296;2022-07-29T13:10:35;101564.91;;;22.24;50.14
64362;BME280;50685;53.346;-6.296;2022-07-29T13:13:10;101606.56;;;22.39;50.29
64362;BME280;50685;53.346;-6.296;2022-07-29T13:15:40;101591.34;;;22.36;49.78
64362;BME280;50685;53.346;-6.296;2022-07-29T13:18:26;101584.47;;;22.29;50.15
64362;BME280;50685;53.346;-6.296;2022-07-29T13:20:52;101568.44;;;22.26;50.36
64362;BME280;50685;53.346;-6.296;2022-07-29T13:23:18;101571.06;;;22.27;50.10
64362;BME280;50685;53.346;-6.296;2022-07-29T13:25:43;101587.41;;;22.43;49.84
64362;BME280;50685;53.346;-6.296;2022-07-29T13:28:09;101585.19;;;22.52;49.70
64362;BME280;50685;53.346;-6.296;2022-07-29T13:30:35;101576.13;;;22.53;49.18
64362;BME280;50685;53.346;-6.296;2022-07-29T13:33:01;101559.97;;;22.51;49.51